VTBU/UTP METAR and TAF weather

Enter ICAO airport designator
Station Type Date Time Source
VTBU METAR 2020/02/27 14:00 UTC NOAA

VTBU 271400Z 20010KT 5000 BR FEW020 BKN100 28/22 Q1012 NOSIG


Station Type Date Time Source
VTBU Decoded METAR 2020/02/27 14:00 UTC NOAA

Rayong, Thailand (VTBU) 12-38N 101-21E 5M
Feb 27, 2020 - 09:00 AM EST / 2020.02.27 1400 UTC
Wind: from the SSW (200 degrees) at 12 MPH (10 KT):0
Visibility: 3 mile(s):0
Sky conditions: mostly cloudy
Weather: mist
Temperature: 82 F (28 C)
Dew Point: 71 F (22 C)
Relative Humidity: 69%
Pressure (altimeter): 29.88 in. Hg (1012 hPa)
ob: VTBU 271400Z 20010KT 5000 BR FEW020 BKN100 28/22 Q1012 NOSIG
cycle: 14

Station Type Date Time Source
VTBU TAF 2020/02/27 12:37 UTC NOAA

TAF VTBU 271100Z 2712/2812 20005KT 5000 BR FEW020
BECMG 2803/2805 18010KT 8000 NSW
BECMG 2810/2812 21004KT 5000 BR

Example: see airport list